CCLLT SCPD-SCEL
Flight info
| Callsign | CCLLT |
|---|---|
| Flight time | 0h 9m |
| Altitude | 5000 |
| Route | DCT |
| Aircraft | C208/L-SD/C |
Departure
| Time | 2026-05-04 01:47 |
|---|---|
| Airport | Peldehue Aerodrome (SCPD) |
Arrival
| Time | 2026-05-04 01:57 |
|---|---|
| Airport | Comodoro Arturo Merino Benítez International Airport (SCEL) |
| Time | Latitude | Longitude | Altitude | Speed | Heading |
|---|---|---|---|---|---|
| 2026-05-04 01:32 | -33.11939 | -70.68495 | 2206 ft | 0 kts | 275° |
| 2026-05-04 01:40 | -33.11939 | -70.68496 | 2206 ft | 1 kts | 276° |
| 2026-05-04 01:40 | -33.11908 | -70.68491 | 2206 ft | 6 kts | 105° |
| 2026-05-04 01:40 | -33.11951 | -70.68434 | 2206 ft | 6 kts | 75° |
| 2026-05-04 01:41 | -33.11900 | -70.68386 | 2206 ft | 7 kts | 355° |
| 2026-05-04 01:41 | -33.11833 | -70.68441 | 2206 ft | 16 kts | 324° |
| 2026-05-04 01:41 | -33.11727 | -70.68534 | 2206 ft | 22 kts | 324° |
| 2026-05-04 01:41 | -33.11595 | -70.68640 | 2206 ft | 22 kts | 326° |
| 2026-05-04 01:42 | -33.11501 | -70.68719 | 2206 ft | 17 kts | 322° |
| 2026-05-04 01:42 | -33.11406 | -70.68805 | 2206 ft | 17 kts | 324° |
| 2026-05-04 01:42 | -33.11313 | -70.68881 | 2206 ft | 16 kts | 327° |
| 2026-05-04 01:42 | -33.11250 | -70.68907 | 2206 ft | 6 kts | 55° |
| 2026-05-04 01:43 | -33.11243 | -70.68896 | 2206 ft | 0 kts | 57° |
| 2026-05-04 01:46 | -33.11236 | -70.68884 | 2206 ft | 6 kts | 57° |
| 2026-05-04 01:46 | -33.11219 | -70.68823 | 2207 ft | 6 kts | 158° |
| 2026-05-04 01:46 | -33.11255 | -70.68798 | 2207 ft | 12 kts | 144° |
| 2026-05-04 01:46 | -33.11518 | -70.68580 | 2205 ft | 83 kts | 145° |
| 2026-05-04 01:47 | -33.12076 | -70.68079 | 2326 ft | 111 kts | 141° |
| 2026-05-04 01:47 | -33.12733 | -70.67543 | 2569 ft | 115 kts | 147° |
| 2026-05-04 01:47 | -33.13382 | -70.67025 | 2907 ft | 110 kts | 146° |
| 2026-05-04 01:47 | -33.14012 | -70.66578 | 3188 ft | 110 kts | 159° |
| 2026-05-04 01:48 | -33.14766 | -70.66442 | 3474 ft | 109 kts | 184° |
| 2026-05-04 01:48 | -33.15513 | -70.66600 | 3775 ft | 109 kts | 200° |
| 2026-05-04 01:48 | -33.16185 | -70.67024 | 4045 ft | 112 kts | 216° |
| 2026-05-04 01:48 | -33.16757 | -70.67660 | 4303 ft | 114 kts | 230° |
| 2026-05-04 01:49 | -33.17271 | -70.68380 | 4558 ft | 117 kts | 229° |
| 2026-05-04 01:49 | -33.17822 | -70.69100 | 4803 ft | 119 kts | 230° |
| 2026-05-04 01:49 | -33.18254 | -70.69931 | 5031 ft | 119 kts | 252° |
| 2026-05-04 01:49 | -33.18414 | -70.70941 | 5145 ft | 128 kts | 263° |
| 2026-05-04 01:50 | -33.18508 | -70.72006 | 5267 ft | 131 kts | 263° |
| 2026-05-04 01:50 | -33.18701 | -70.73088 | 5352 ft | 136 kts | 251° |
| 2026-05-04 01:50 | -33.19089 | -70.74165 | 5303 ft | 145 kts | 245° |
| 2026-05-04 01:50 | -33.19519 | -70.75261 | 5218 ft | 150 kts | 245° |
| 2026-05-04 01:51 | -33.19950 | -70.76406 | 5118 ft | 152 kts | 246° |
| 2026-05-04 01:51 | -33.20399 | -70.77579 | 4892 ft | 157 kts | 246° |
| 2026-05-04 01:51 | -33.20831 | -70.78781 | 4708 ft | 157 kts | 249° |
| 2026-05-04 01:51 | -33.21236 | -70.80001 | 4518 ft | 158 kts | 249° |
| 2026-05-04 01:52 | -33.21633 | -70.81210 | 4265 ft | 161 kts | 242° |
| 2026-05-04 01:52 | -33.22490 | -70.81923 | 4192 ft | 154 kts | 187° |
| 2026-05-04 01:52 | -33.23486 | -70.81582 | 4202 ft | 146 kts | 154° |
| 2026-05-04 01:52 | -33.24459 | -70.81169 | 4082 ft | 148 kts | 169° |
| 2026-05-04 01:53 | -33.25460 | -70.80955 | 3975 ft | 146 kts | 172° |
| 2026-05-04 01:53 | -33.26451 | -70.80848 | 3835 ft | 146 kts | 179° |
| 2026-05-04 01:53 | -33.27495 | -70.80834 | 3661 ft | 147 kts | 182° |
| 2026-05-04 01:53 | -33.28490 | -70.80795 | 3456 ft | 150 kts | 176° |
| 2026-05-04 01:54 | -33.29517 | -70.80726 | 3221 ft | 143 kts | 180° |
| 2026-05-04 01:54 | -33.30501 | -70.80697 | 2963 ft | 138 kts | 178° |
| 2026-05-04 01:54 | -33.31411 | -70.80651 | 2782 ft | 121 kts | 180° |
| 2026-05-04 01:54 | -33.32225 | -70.80585 | 2649 ft | 116 kts | 175° |
| 2026-05-04 01:55 | -33.33037 | -70.80532 | 2398 ft | 120 kts | 179° |
| 2026-05-04 01:55 | -33.33849 | -70.80530 | 2301 ft | 113 kts | 185° |
| 2026-05-04 01:55 | -33.34636 | -70.80510 | 2122 ft | 115 kts | 177° |
| 2026-05-04 01:55 | -33.35423 | -70.80448 | 2004 ft | 111 kts | 179° |
| 2026-05-04 01:56 | -33.36178 | -70.80429 | 1885 ft | 101 kts | 179° |
| 2026-05-04 01:56 | -33.36828 | -70.80393 | 1741 ft | 90 kts | 178° |
| 2026-05-04 01:56 | -33.37444 | -70.80362 | 1614 ft | 88 kts | 178° |
| 2026-05-04 01:56 | -33.38033 | -70.80329 | 1572 ft | 75 kts | 179° |
| 2026-05-04 01:57 | -33.38470 | -70.80307 | 1572 ft | 53 kts | 177° |
| 2026-05-04 01:57 | -33.38785 | -70.80286 | 1573 ft | 40 kts | 178° |
| 2026-05-04 01:57 | -33.39049 | -70.80274 | 1572 ft | 36 kts | 178° |
| 2026-05-04 01:57 | -33.39131 | -70.80272 | 1572 ft | 34 kts | 178° |
| 2026-05-04 01:58 | -33.39262 | -70.80235 | 1571 ft | 20 kts | 158° |
| 2026-05-04 01:58 | -33.39389 | -70.80154 | 1568 ft | 23 kts | 146° |
| 2026-05-04 01:58 | -33.39501 | -70.80072 | 1565 ft | 15 kts | 148° |
| 2026-05-04 01:58 | -33.39531 | -70.79973 | 1564 ft | 14 kts | 84° |
| 2026-05-04 01:59 | -33.39523 | -70.79815 | 1564 ft | 13 kts | 70° |
| 2026-05-04 01:59 | -33.39460 | -70.79795 | 1564 ft | 10 kts | 357° |
| 2026-05-04 01:59 | -33.39411 | -70.79795 | 1564 ft | 8 kts | 358° |
| 2026-05-04 01:59 | -33.39354 | -70.79797 | 1564 ft | 9 kts | 19° |
| 2026-05-04 02:00 | -33.39337 | -70.79725 | 1563 ft | 10 kts | 84° |
| 2026-05-04 02:00 | -33.39334 | -70.79632 | 1563 ft | 12 kts | 88° |
| 2026-05-04 02:00 | -33.39330 | -70.79530 | 1563 ft | 13 kts | 86° |
| 2026-05-04 02:00 | -33.39323 | -70.79420 | 1563 ft | 14 kts | 86° |
| 2026-05-04 02:01 | -33.39320 | -70.79303 | 1563 ft | 14 kts | 89° |